sensor_id;sensor_type;location;lat;lon;timestamp;P1;durP1;ratioP1;P2;durP2;ratioP2
40849;SDS011;26571;41.610;25.380;2022-08-19T00:00:10;5.67;;;2.97;;
40849;SDS011;26571;41.610;25.380;2022-08-19T00:02:39;2.25;;;2.15;;
40849;SDS011;26571;41.610;25.380;2022-08-19T00:05:05;4.23;;;3.47;;
40849;SDS011;26571;41.610;25.380;2022-08-19T00:07:30;5.27;;;3.03;;
40849;SDS011;26571;41.610;25.380;2022-08-19T00:09:56;3.57;;;2.40;;
40849;SDS011;26571;41.610;25.380;2022-08-19T00:12:21;5.40;;;3.27;;
40849;SDS011;26571;41.610;25.380;2022-08-19T00:14:47;5.30;;;3.50;;
40849;SDS011;26571;41.610;25.380;2022-08-19T00:17:12;3.27;;;3.07;;
40849;SDS011;26571;41.610;25.380;2022-08-19T00:19:38;4.75;;;4.10;;
40849;SDS011;26571;41.610;25.380;2022-08-19T00:22:04;4.22;;;3.88;;
40849;SDS011;26571;41.610;25.380;2022-08-19T00:24:30;9.13;;;4.17;;
40849;SDS011;26571;41.610;25.380;2022-08-19T00:26:56;4.65;;;4.30;;
40849;SDS011;26571;41.610;25.380;2022-08-19T00:29:22;3.10;;;2.90;;
40849;SDS011;26571;41.610;25.380;2022-08-19T00:31:49;5.15;;;4.53;;
40849;SDS011;26571;41.610;25.380;2022-08-19T00:34:19;4.53;;;3.15;;
40849;SDS011;26571;41.610;25.380;2022-08-19T00:36:45;5.78;;;3.30;;
40849;SDS011;26571;41.610;25.380;2022-08-19T00:39:11;3.30;;;3.00;;
40849;SDS011;26571;41.610;25.380;2022-08-19T00:41:37;4.00;;;3.70;;
40849;SDS011;26571;41.610;25.380;2022-08-19T00:44:10;4.43;;;3.97;;
40849;SDS011;26571;41.610;25.380;2022-08-19T00:46:43;3.97;;;3.60;;
40849;SDS011;26571;41.610;25.380;2022-08-19T00:49:20;4.32;;;3.92;;
40849;SDS011;26571;41.610;25.380;2022-08-19T00:51:50;3.97;;;3.63;;
40849;SDS011;26571;41.610;25.380;2022-08-19T00:54:18;3.75;;;3.55;;
40849;SDS011;26571;41.610;25.380;2022-08-19T00:56:44;4.38;;;3.97;;
40849;SDS011;26571;41.610;25.380;2022-08-19T00:59:10;3.50;;;3.27;;
40849;SDS011;26571;41.610;25.380;2022-08-19T01:01:37;4.00;;;3.63;;
40849;SDS011;26571;41.610;25.380;2022-08-19T01:04:04;7.65;;;4.05;;
40849;SDS011;26571;41.610;25.380;2022-08-19T01:06:31;8.70;;;4.47;;
40849;SDS011;26571;41.610;25.380;2022-08-19T01:08:58;3.72;;;3.53;;
40849;SDS011;26571;41.610;25.380;2022-08-19T01:11:24;3.72;;;3.42;;
40849;SDS011;26571;41.610;25.380;2022-08-19T01:16:18;3.72;;;3.47;;
40849;SDS011;26571;41.610;25.380;2022-08-19T01:18:46;3.88;;;3.58;;
40849;SDS011;26571;41.610;25.380;2022-08-19T01:21:18;3.63;;;3.33;;
40849;SDS011;26571;41.610;25.380;2022-08-19T01:23:45;4.10;;;3.42;;
40849;SDS011;26571;41.610;25.380;2022-08-19T01:26:13;4.40;;;3.73;;
40849;SDS011;26571;41.610;25.380;2022-08-19T01:28:41;4.13;;;3.90;;
40849;SDS011;26571;41.610;25.380;2022-08-19T01:31:10;4.93;;;4.22;;
40849;SDS011;26571;41.610;25.380;2022-08-19T01:33:43;5.68;;;5.28;;
40849;SDS011;26571;41.610;25.380;2022-08-19T01:36:16;4.93;;;4.47;;
40849;SDS011;26571;41.610;25.380;2022-08-19T01:38:48;5.82;;;4.93;;
40849;SDS011;26571;41.610;25.380;2022-08-19T01:41:14;4.90;;;4.53;;
40849;SDS011;26571;41.610;25.380;2022-08-19T01:43:42;4.75;;;4.28;;
40849;SDS011;26571;41.610;25.380;2022-08-19T01:46:07;4.50;;;4.20;;
40849;SDS011;26571;41.610;25.380;2022-08-19T01:48:37;4.32;;;4.10;;
40849;SDS011;26571;41.610;25.380;2022-08-19T01:51:04;9.15;;;4.68;;
40849;SDS011;26571;41.610;25.380;2022-08-19T01:53:31;4.28;;;4.07;;
40849;SDS011;26571;41.610;25.380;2022-08-19T01:55:57;6.90;;;5.38;;
40849;SDS011;26571;41.610;25.380;2022-08-19T01:58:24;5.57;;;5.17;;
40849;SDS011;26571;41.610;25.380;2022-08-19T02:00:57;4.97;;;4.57;;
40849;SDS011;26571;41.610;25.380;2022-08-19T02:03:24;4.90;;;4.50;;
40849;SDS011;26571;41.610;25.380;2022-08-19T02:05:53;5.32;;;4.93;;
40849;SDS011;26571;41.610;25.380;2022-08-19T02:08:20;5.47;;;5.07;;
40849;SDS011;26571;41.610;25.380;2022-08-19T02:10:46;4.82;;;4.57;;
40849;SDS011;26571;41.610;25.380;2022-08-19T02:13:12;5.43;;;5.13;;
40849;SDS011;26571;41.610;25.380;2022-08-19T02:15:38;5.53;;;5.03;;
40849;SDS011;26571;41.610;25.380;2022-08-19T02:18:04;5.88;;;5.13;;
40849;SDS011;26571;41.610;25.380;2022-08-19T02:20:30;5.25;;;4.57;;
40849;SDS011;26571;41.610;25.380;2022-08-19T02:22:55;4.93;;;4.53;;
40849;SDS011;26571;41.610;25.380;2022-08-19T02:25:21;4.22;;;3.97;;
40849;SDS011;26571;41.610;25.380;2022-08-19T02:27:46;4.75;;;4.35;;
40849;SDS011;26571;41.610;25.380;2022-08-19T02:30:13;5.10;;;4.68;;
40849;SDS011;26571;41.610;25.380;2022-08-19T02:32:41;17.35;;;5.35;;
40849;SDS011;26571;41.610;25.380;2022-08-19T02:35:07;18.65;;;5.50;;
40849;SDS011;26571;41.610;25.380;2022-08-19T02:37:33;34.03;;;8.23;;
40849;SDS011;26571;41.610;25.380;2022-08-19T02:40:17;49.17;;;9.00;;
40849;SDS011;26571;41.610;25.380;2022-08-19T02:42:43;33.28;;;7.47;;
40849;SDS011;26571;41.610;25.380;2022-08-19T02:45:10;17.40;;;5.93;;
40849;SDS011;26571;41.610;25.380;2022-08-19T02:47:35;8.85;;;4.97;;
40849;SDS011;26571;41.610;25.380;2022-08-19T02:50:02;6.55;;;4.63;;
40849;SDS011;26571;41.610;25.380;2022-08-19T02:52:28;7.00;;;4.90;;
40849;SDS011;26571;41.610;25.380;2022-08-19T02:54:54;5.45;;;5.05;;
40849;SDS011;26571;41.610;25.380;2022-08-19T02:57:21;7.72;;;6.00;;
40849;SDS011;26571;41.610;25.380;2022-08-19T02:59:47;7.30;;;5.72;;
40849;SDS011;26571;41.610;25.380;2022-08-19T03:02:13;7.07;;;5.63;;
40849;SDS011;26571;41.610;25.380;2022-08-19T03:04:38;5.28;;;4.63;;
40849;SDS011;26571;41.610;25.380;2022-08-19T03:07:04;4.80;;;4.60;;
40849;SDS011;26571;41.610;25.380;2022-08-19T03:09:29;6.10;;;5.70;;
40849;SDS011;26571;41.610;25.380;2022-08-19T03:11:55;5.50;;;4.95;;
40849;SDS011;26571;41.610;25.380;2022-08-19T03:14:20;6.70;;;5.65;;
40849;SDS011;26571;41.610;25.380;2022-08-19T03:16:47;5.65;;;5.18;;
40849;SDS011;26571;41.610;25.380;2022-08-19T03:19:16;5.32;;;4.93;;
40849;SDS011;26571;41.610;25.380;2022-08-19T03:21:43;6.55;;;5.97;;
40849;SDS011;26571;41.610;25.380;2022-08-19T03:24:10;6.28;;;5.65;;
40849;SDS011;26571;41.610;25.380;2022-08-19T03:26:40;5.97;;;5.45;;
40849;SDS011;26571;41.610;25.380;2022-08-19T03:29:08;5.45;;;5.05;;
40849;SDS011;26571;41.610;25.380;2022-08-19T03:31:36;5.40;;;4.90;;
40849;SDS011;26571;41.610;25.380;2022-08-19T03:34:04;6.80;;;5.70;;
40849;SDS011;26571;41.610;25.380;2022-08-19T03:36:29;5.78;;;4.82;;
40849;SDS011;26571;41.610;25.380;2022-08-19T03:38:56;5.65;;;5.25;;
40849;SDS011;26571;41.610;25.380;2022-08-19T03:41:25;8.25;;;5.18;;
40849;SDS011;26571;41.610;25.380;2022-08-19T03:43:53;5.88;;;5.00;;
40849;SDS011;26571;41.610;25.380;2022-08-19T03:46:20;5.07;;;4.57;;
40849;SDS011;26571;41.610;25.380;2022-08-19T03:48:47;5.28;;;4.65;;
40849;SDS011;26571;41.610;25.380;2022-08-19T03:53:49;5.63;;;5.22;;
40849;SDS011;26571;41.610;25.380;2022-08-19T03:56:15;5.53;;;4.95;;
40849;SDS011;26571;41.610;25.380;2022-08-19T03:58:41;5.90;;;5.13;;
40849;SDS011;26571;41.610;25.380;2022-08-19T04:01:07;11.57;;;5.60;;
40849;SDS011;26571;41.610;25.380;2022-08-19T04:03:38;5.30;;;4.90;;
40849;SDS011;26571;41.610;25.380;2022-08-19T04:08:36;5.50;;;4.32;;
40849;SDS011;26571;41.610;25.380;2022-08-19T04:11:05;5.10;;;4.77;;
40849;SDS011;26571;41.610;25.380;2022-08-19T04:13:32;4.90;;;4.57;;
40849;SDS011;26571;41.610;25.380;2022-08-19T04:15:59;5.07;;;4.70;;
40849;SDS011;26571;41.610;25.380;2022-08-19T04:18:24;8.37;;;5.30;;
40849;SDS011;26571;41.610;25.380;2022-08-19T04:20:51;4.30;;;4.10;;
40849;SDS011;26571;41.610;25.380;2022-08-19T04:25:43;7.03;;;3.92;;
40849;SDS011;26571;41.610;25.380;2022-08-19T04:28:10;12.67;;;4.70;;
40849;SDS011;26571;41.610;25.380;2022-08-19T04:30:42;5.63;;;3.40;;
40849;SDS011;26571;41.610;25.380;2022-08-19T04:33:13;16.45;;;4.72;;
40849;SDS011;26571;41.610;25.380;2022-08-19T04:35:41;7.32;;;3.42;;
40849;SDS011;26571;41.610;25.380;2022-08-19T04:38:09;5.95;;;3.38;;
40849;SDS011;26571;41.610;25.380;2022-08-19T04:40:42;6.90;;;3.08;;
40849;SDS011;26571;41.610;25.380;2022-08-19T04:43:27;3.00;;;2.72;;
40849;SDS011;26571;41.610;25.380;2022-08-19T04:45:53;3.17;;;2.97;;
40849;SDS011;26571;41.610;25.380;2022-08-19T04:48:19;3.03;;;2.78;;
40849;SDS011;26571;41.610;25.380;2022-08-19T04:50:52;2.97;;;2.70;;
40849;SDS011;26571;41.610;25.380;2022-08-19T04:53:29;6.00;;;3.97;;
40849;SDS011;26571;41.610;25.380;2022-08-19T04:55:57;4.72;;;3.05;;
40849;SDS011;26571;41.610;25.380;2022-08-19T04:58:25;2.83;;;2.70;;
40849;SDS011;26571;41.610;25.380;2022-08-19T05:00:52;3.05;;;2.63;;
40849;SDS011;26571;41.610;25.380;2022-08-19T05:05:44;2.97;;;2.88;;
40849;SDS011;26571;41.610;25.380;2022-08-19T05:08:13;2.80;;;2.60;;
40849;SDS011;26571;41.610;25.380;2022-08-19T05:10:44;3.30;;;3.00;;
40849;SDS011;26571;41.610;25.380;2022-08-19T05:13:12;5.00;;;2.55;;
40849;SDS011;26571;41.610;25.380;2022-08-19T05:15:38;3.05;;;2.85;;
40849;SDS011;26571;41.610;25.380;2022-08-19T05:20:48;3.08;;;2.88;;
40849;SDS011;26571;41.610;25.380;2022-08-19T05:23:32;4.45;;;3.67;;
40849;SDS011;26571;41.610;25.380;2022-08-19T05:28:23;3.35;;;3.15;;
40849;SDS011;26571;41.610;25.380;2022-08-19T05:30:48;3.72;;;2.97;;
40849;SDS011;26571;41.610;25.380;2022-08-19T05:33:15;3.90;;;3.42;;
40849;SDS011;26571;41.610;25.380;2022-08-19T05:35:42;4.00;;;3.38;;
40849;SDS011;26571;41.610;25.380;2022-08-19T05:38:09;3.13;;;2.88;;
40849;SDS011;26571;41.610;25.380;2022-08-19T05:40:36;2.40;;;2.30;;
40849;SDS011;26571;41.610;25.380;2022-08-19T05:43:06;3.25;;;2.17;;
40849;SDS011;26571;41.610;25.380;2022-08-19T05:45:33;2.53;;;2.33;;
40849;SDS011;26571;41.610;25.380;2022-08-19T05:48:03;3.13;;;2.92;;
40849;SDS011;26571;41.610;25.380;2022-08-19T05:50:29;2.58;;;2.47;;
40849;SDS011;26571;41.610;25.380;2022-08-19T05:52:55;3.50;;;2.42;;
40849;SDS011;26571;41.610;25.380;2022-08-19T05:55:20;4.28;;;2.55;;
40849;SDS011;26571;41.610;25.380;2022-08-19T05:57:47;3.03;;;2.83;;
40849;SDS011;26571;41.610;25.380;2022-08-19T06:00:13;5.22;;;2.95;;
40849;SDS011;26571;41.610;25.380;2022-08-19T06:02:39;2.75;;;2.65;;
40849;SDS011;26571;41.610;25.380;2022-08-19T06:05:06;3.17;;;2.72;;
40849;SDS011;26571;41.610;25.380;2022-08-19T06:07:34;3.75;;;3.55;;
40849;SDS011;26571;41.610;25.380;2022-08-19T06:10:01;3.85;;;3.63;;
40849;SDS011;26571;41.610;25.380;2022-08-19T06:12:28;3.55;;;3.35;;
40849;SDS011;26571;41.610;25.380;2022-08-19T06:14:58;4.40;;;3.53;;
40849;SDS011;26571;41.610;25.380;2022-08-19T06:17:24;2.78;;;2.58;;
40849;SDS011;26571;41.610;25.380;2022-08-19T06:19:51;4.00;;;3.40;;
40849;SDS011;26571;41.610;25.380;2022-08-19T06:22:17;7.60;;;5.32;;
40849;SDS011;26571;41.610;25.380;2022-08-19T06:24:42;5.30;;;4.17;;
40849;SDS011;26571;41.610;25.380;2022-08-19T06:27:08;5.67;;;5.07;;
40849;SDS011;26571;41.610;25.380;2022-08-19T06:29:33;6.03;;;3.80;;
40849;SDS011;26571;41.610;25.380;2022-08-19T06:32:00;3.88;;;3.60;;
40849;SDS011;26571;41.610;25.380;2022-08-19T06:34:28;6.63;;;4.47;;
40849;SDS011;26571;41.610;25.380;2022-08-19T06:36:56;6.18;;;3.45;;
40849;SDS011;26571;41.610;25.380;2022-08-19T06:39:26;3.50;;;3.20;;
40849;SDS011;26571;41.610;25.380;2022-08-19T06:41:55;4.82;;;4.28;;
40849;SDS011;26571;41.610;25.380;2022-08-19T06:44:24;4.05;;;3.40;;
40849;SDS011;26571;41.610;25.380;2022-08-19T06:46:52;6.35;;;3.35;;
40849;SDS011;26571;41.610;25.380;2022-08-19T06:51:45;3.97;;;3.38;;
40849;SDS011;26571;41.610;25.380;2022-08-19T06:54:15;6.07;;;4.07;;
40849;SDS011;26571;41.610;25.380;2022-08-19T06:56:43;8.35;;;4.22;;
40849;SDS011;26571;41.610;25.380;2022-08-19T06:59:11;6.45;;;3.50;;
40849;SDS011;26571;41.610;25.380;2022-08-19T07:01:42;4.03;;;3.58;;
40849;SDS011;26571;41.610;25.380;2022-08-19T07:04:12;7.32;;;5.25;;
40849;SDS011;26571;41.610;25.380;2022-08-19T07:06:40;4.30;;;3.90;;
40849;SDS011;26571;41.610;25.380;2022-08-19T07:09:06;3.97;;;3.67;;
40849;SDS011;26571;41.610;25.380;2022-08-19T07:11:33;3.83;;;3.55;;
40849;SDS011;26571;41.610;25.380;2022-08-19T07:13:59;7.20;;;3.27;;
40849;SDS011;26571;41.610;25.380;2022-08-19T07:16:26;2.95;;;2.75;;
40849;SDS011;26571;41.610;25.380;2022-08-19T07:18:52;6.18;;;3.70;;
40849;SDS011;26571;41.610;25.380;2022-08-19T07:23:46;4.68;;;3.22;;
40849;SDS011;26571;41.610;25.380;2022-08-19T07:28:44;4.68;;;4.15;;
40849;SDS011;26571;41.610;25.380;2022-08-19T07:31:11;5.43;;;3.60;;
40849;SDS011;26571;41.610;25.380;2022-08-19T07:33:45;5.13;;;3.72;;
40849;SDS011;26571;41.610;25.380;2022-08-19T07:36:12;5.70;;;4.13;;
40849;SDS011;26571;41.610;25.380;2022-08-19T07:38:43;4.60;;;4.20;;
40849;SDS011;26571;41.610;25.380;2022-08-19T07:41:11;7.70;;;4.47;;
40849;SDS011;26571;41.610;25.380;2022-08-19T07:43:38;9.80;;;6.22;;
40849;SDS011;26571;41.610;25.380;2022-08-19T07:46:05;4.25;;;3.80;;
40849;SDS011;26571;41.610;25.380;2022-08-19T07:50:59;3.95;;;3.22;;
40849;SDS011;26571;41.610;25.380;2022-08-19T07:53:29;3.10;;;2.90;;
40849;SDS011;26571;41.610;25.380;2022-08-19T07:55:56;4.40;;;3.28;;
40849;SDS011;26571;41.610;25.380;2022-08-19T07:58:28;4.60;;;3.60;;
40849;SDS011;26571;41.610;25.380;2022-08-19T08:00:56;3.70;;;3.28;;
40849;SDS011;26571;41.610;25.380;2022-08-19T08:03:22;6.00;;;3.30;;
40849;SDS011;26571;41.610;25.380;2022-08-19T08:06:11;3.92;;;3.60;;
40849;SDS011;26571;41.610;25.380;2022-08-19T08:08:56;3.47;;;3.17;;
40849;SDS011;26571;41.610;25.380;2022-08-19T08:11:38;4.03;;;3.65;;
40849;SDS011;26571;41.610;25.380;2022-08-19T08:14:05;5.18;;;3.10;;
40849;SDS011;26571;41.610;25.380;2022-08-19T08:16:35;3.88;;;3.20;;
40849;SDS011;26571;41.610;25.380;2022-08-19T08:19:03;3.67;;;3.38;;
40849;SDS011;26571;41.610;25.380;2022-08-19T08:21:32;5.80;;;3.95;;
40849;SDS011;26571;41.610;25.380;2022-08-19T08:23:58;3.05;;;2.85;;
40849;SDS011;26571;41.610;25.380;2022-08-19T08:26:24;3.85;;;2.75;;
40849;SDS011;26571;41.610;25.380;2022-08-19T08:28:50;3.50;;;3.20;;
40849;SDS011;26571;41.610;25.380;2022-08-19T08:31:16;3.28;;;3.08;;
40849;SDS011;26571;41.610;25.380;2022-08-19T08:33:44;3.90;;;3.53;;
40849;SDS011;26571;41.610;25.380;2022-08-19T08:36:11;3.75;;;3.08;;
40849;SDS011;26571;41.610;25.380;2022-08-19T08:38:38;3.00;;;2.35;;
40849;SDS011;26571;41.610;25.380;2022-08-19T08:41:09;2.53;;;2.42;;
40849;SDS011;26571;41.610;25.380;2022-08-19T08:43:53;4.53;;;3.40;;
40849;SDS011;26571;41.610;25.380;2022-08-19T08:51:27;3.55;;;3.35;;
40849;SDS011;26571;41.610;25.380;2022-08-19T08:54:07;3.05;;;2.90;;
40849;SDS011;26571;41.610;25.380;2022-08-19T08:56:40;5.53;;;3.97;;
40849;SDS011;26571;41.610;25.380;2022-08-19T08:59:10;3.53;;;2.40;;
40849;SDS011;26571;41.610;25.380;2022-08-19T09:01:53;3.08;;;2.88;;
40849;SDS011;26571;41.610;25.380;2022-08-19T09:04:18;4.53;;;2.75;;
40849;SDS011;26571;41.610;25.380;2022-08-19T09:09:18;3.67;;;2.80;;
40849;SDS011;26571;41.610;25.380;2022-08-19T09:12:01;4.35;;;2.80;;
40849;SDS011;26571;41.610;25.380;2022-08-19T09:15:06;2.72;;;2.63;;
40849;SDS011;26571;41.610;25.380;2022-08-19T09:17:34;3.88;;;3.60;;
40849;SDS011;26571;41.610;25.380;2022-08-19T09:22:38;2.97;;;2.85;;
40849;SDS011;26571;41.610;25.380;2022-08-19T09:25:06;3.47;;;3.28;;
40849;SDS011;26571;41.610;25.380;2022-08-19T09:27:35;3.75;;;2.95;;
40849;SDS011;26571;41.610;25.380;2022-08-19T09:30:03;3.50;;;2.47;;
40849;SDS011;26571;41.610;25.380;2022-08-19T09:32:30;3.08;;;2.80;;
40849;SDS011;26571;41.610;25.380;2022-08-19T09:34:56;6.72;;;2.80;;
40849;SDS011;26571;41.610;25.380;2022-08-19T09:37:23;2.50;;;2.40;;
40849;SDS011;26571;41.610;25.380;2022-08-19T09:42:14;5.15;;;2.45;;
40849;SDS011;26571;41.610;25.380;2022-08-19T09:44:40;3.58;;;2.33;;
40849;SDS011;26571;41.610;25.380;2022-08-19T09:47:07;2.28;;;2.17;;
40849;SDS011;26571;41.610;25.380;2022-08-19T09:49:33;3.03;;;2.70;;
40849;SDS011;26571;41.610;25.380;2022-08-19T09:51:59;4.65;;;1.88;;
40849;SDS011;26571;41.610;25.380;2022-08-19T09:54:25;4.65;;;2.28;;
40849;SDS011;26571;41.610;25.380;2022-08-19T09:56:55;2.40;;;2.30;;
40849;SDS011;26571;41.610;25.380;2022-08-19T09:59:22;3.67;;;2.63;;
40849;SDS011;26571;41.610;25.380;2022-08-19T10:01:48;2.15;;;2.00;;
40849;SDS011;26571;41.610;25.380;2022-08-19T10:04:13;6.55;;;1.95;;
40849;SDS011;26571;41.610;25.380;2022-08-19T10:06:39;1.83;;;1.73;;
40849;SDS011;26571;41.610;25.380;2022-08-19T10:09:05;2.03;;;1.88;;
40849;SDS011;26571;41.610;25.380;2022-08-19T10:11:33;1.80;;;1.70;;
40849;SDS011;26571;41.610;25.380;2022-08-19T10:14:00;2.83;;;2.72;;
40849;SDS011;26571;41.610;25.380;2022-08-19T10:16:26;5.32;;;2.08;;
40849;SDS011;26571;41.610;25.380;2022-08-19T10:18:52;2.28;;;1.75;;
40849;SDS011;26571;41.610;25.380;2022-08-19T10:21:20;2.47;;;2.03;;
40849;SDS011;26571;41.610;25.380;2022-08-19T10:23:51;3.10;;;1.83;;
40849;SDS011;26571;41.610;25.380;2022-08-19T10:26:20;2.35;;;2.20;;
40849;SDS011;26571;41.610;25.380;2022-08-19T10:28:48;2.22;;;2.13;;
40849;SDS011;26571;41.610;25.380;2022-08-19T10:31:15;2.33;;;2.08;;
40849;SDS011;26571;41.610;25.380;2022-08-19T10:33:43;2.28;;;2.17;;
40849;SDS011;26571;41.610;25.380;2022-08-19T10:36:10;2.97;;;1.95;;
40849;SDS011;26571;41.610;25.380;2022-08-19T10:38:40;2.78;;;1.00;;
40849;SDS011;26571;41.610;25.380;2022-08-19T10:41:10;1.65;;;1.55;;
40849;SDS011;26571;41.610;25.380;2022-08-19T10:43:46;4.07;;;1.92;;
40849;SDS011;26571;41.610;25.380;2022-08-19T10:46:17;3.67;;;2.35;;
40849;SDS011;26571;41.610;25.380;2022-08-19T10:48:43;1.67;;;1.58;;
40849;SDS011;26571;41.610;25.380;2022-08-19T10:51:09;2.25;;;2.08;;
40849;SDS011;26571;41.610;25.380;2022-08-19T10:53:54;1.85;;;1.75;;
40849;SDS011;26571;41.610;25.380;2022-08-19T10:59:05;3.85;;;2.05;;
40849;SDS011;26571;41.610;25.380;2022-08-19T11:01:31;2.30;;;1.27;;
40849;SDS011;26571;41.610;25.380;2022-08-19T11:03:59;1.00;;;1.00;;
40849;SDS011;26571;41.610;25.380;2022-08-19T11:06:28;3.30;;;1.70;;
40849;SDS011;26571;41.610;25.380;2022-08-19T11:08:55;1.63;;;1.27;;
40849;SDS011;26571;41.610;25.380;2022-08-19T11:11:21;4.45;;;1.73;;
40849;SDS011;26571;41.610;25.380;2022-08-19T11:13:47;6.15;;;1.92;;
40849;SDS011;26571;41.610;25.380;2022-08-19T11:16:15;1.45;;;1.35;;
40849;SDS011;26571;41.610;25.380;2022-08-19T11:18:48;1.80;;;1.70;;
40849;SDS011;26571;41.610;25.380;2022-08-19T11:23:44;2.33;;;2.13;;
40849;SDS011;26571;41.610;25.380;2022-08-19T11:26:11;2.95;;;2.72;;
40849;SDS011;26571;41.610;25.380;2022-08-19T11:31:03;4.13;;;1.75;;
